Time;durP1;ratioP1;P1;durP2;ratioP2;P2;SDS_P1;SDS_P2;PMS_P1;PMS_P2;Temp;Humidity;BMP_temperature;BMP_pressure;BME280_temperature;BME280_humidity;BME280_pressure;Samples;Min_cycle;Max_cycle;Signal;HPM_P1;HPM_P2
2024/02/06 00:00:46;;;;;;;141.90;97.95;;;10.60;99.90;;;;;;6246348;23;20000;-74
2024/02/06 00:03:11;;;;;;;142.27;98.07;;;10.70;99.90;;;;;;6245901;23;20063;-74
2024/02/06 00:05:37;;;;;;;147.50;102.38;;;10.60;99.90;;;;;;6245832;23;19996;-72
2024/02/06 00:08:03;;;;;;;150.30;103.97;;;10.60;99.90;;;;;;6245750;23;20438;-72
2024/02/06 00:10:29;;;;;;;145.60;99.97;;;10.60;99.90;;;;;;6246083;23;20000;-72
2024/02/06 00:12:55;;;;;;;152.50;103.07;;;10.60;99.90;;;;;;6245839;23;20004;-73
2024/02/06 00:15:20;;;;;;;149.65;103.05;;;10.60;99.90;;;;;;6246012;23;20000;-72
2024/02/06 00:17:46;;;;;;;151.77;101.63;;;10.60;99.90;;;;;;6245897;23;20099;-72
2024/02/06 00:20:12;;;;;;;153.88;105.47;;;10.60;99.90;;;;;;6245528;23;20304;-72
2024/02/06 00:22:38;;;;;;;145.02;101.35;;;10.60;99.90;;;;;;6245645;23;20004;-72
2024/02/06 00:25:06;;;;;;;150.98;102.25;;;10.60;99.90;;;;;;6245982;23;20099;-72
2024/02/06 00:27:31;;;;;;;147.65;100.75;;;10.60;99.90;;;;;;6245713;23;20022;-72
2024/02/06 00:29:57;;;;;;;151.55;103.53;;;10.60;99.90;;;;;;6245742;23;20043;-73
2024/02/06 00:32:23;;;;;;;154.27;102.30;;;10.60;99.90;;;;;;6244739;23;20004;-73
2024/02/06 00:34:49;;;;;;;145.98;97.88;;;10.60;99.90;;;;;;6245325;23;20022;-72
2024/02/06 00:37:17;;;;;;;147.93;102.35;;;10.60;99.90;;;;;;6245460;23;20023;-72
2024/02/06 00:39:42;;;;;;;148.18;97.55;;;10.70;99.90;;;;;;6218694;23;20004;-72
2024/02/06 00:42:09;;;;;;;147.25;101.45;;;10.60;99.90;;;;;;6245311;23;20001;-73
2024/02/06 00:44:35;;;;;;;146.45;99.15;;;10.60;99.90;;;;;;6245059;23;20140;-72
2024/02/06 00:47:00;;;;;;;140.77;97.97;;;10.60;99.90;;;;;;6245486;23;20104;-74
2024/02/06 00:49:26;;;;;;;143.00;98.75;;;10.60;99.90;;;;;;6245254;23;20012;-73
2024/02/06 00:51:52;;;;;;;142.55;98.18;;;10.70;99.90;;;;;;6245362;23;20330;-73
2024/02/06 00:54:18;;;;;;;141.82;99.80;;;10.60;99.90;;;;;;6245616;23;20076;-72
2024/02/06 00:56:43;;;;;;;144.95;99.07;;;10.60;99.90;;;;;;6244321;23;20078;-75
2024/02/06 00:59:09;;;;;;;143.50;99.75;;;10.60;99.90;;;;;;6245728;23;20004;-75
2024/02/06 01:01:35;;;;;;;135.02;96.70;;;10.60;99.90;;;;;;6245584;23;20043;-76
2024/02/06 01:04:00;;;;;;;138.70;98.45;;;10.60;99.90;;;;;;6245490;23;20008;-75
2024/02/06 01:06:26;;;;;;;144.32;99.97;;;10.60;99.90;;;;;;6245579;23;20004;-76
2024/02/06 01:08:52;;;;;;;140.70;99.50;;;10.60;99.90;;;;;;6245279;23;20078;-76
2024/02/06 01:11:18;;;;;;;143.27;99.28;;;10.60;99.90;;;;;;6245098;23;20095;-76
2024/02/06 01:13:44;;;;;;;139.70;98.50;;;10.60;99.90;;;;;;6245150;23;20000;-75
2024/02/06 01:16:09;;;;;;;145.15;98.38;;;10.60;99.90;;;;;;6244869;23;20000;-75
2024/02/06 01:18:35;;;;;;;135.80;94.97;;;10.60;99.90;;;;;;6245395;23;20000;-76
2024/02/06 01:21:01;;;;;;;134.25;98.72;;;10.60;99.90;;;;;;6245048;23;20015;-75
2024/02/06 01:23:27;;;;;;;146.02;98.25;;;10.60;99.90;;;;;;6245326;23;19996;-76
2024/02/06 01:25:53;;;;;;;141.45;98.93;;;10.60;99.90;;;;;;6245334;23;20015;-75
2024/02/06 01:28:18;;;;;;;138.10;97.53;;;10.60;99.90;;;;;;6245176;23;20012;-76
2024/02/06 01:30:44;;;;;;;146.38;98.10;;;10.60;99.90;;;;;;6244857;23;20015;-76
2024/02/06 01:33:10;;;;;;;141.43;98.40;;;10.60;99.90;;;;;;6245221;23;20070;-74
2024/02/06 01:35:36;;;;;;;138.88;95.95;;;10.60;99.90;;;;;;6244791;23;19996;-75
2024/02/06 01:38:02;;;;;;;137.63;97.22;;;10.60;99.90;;;;;;6245245;23;20011;-74
2024/02/06 01:40:27;;;;;;;143.02;96.65;;;10.60;99.90;;;;;;6245067;23;20000;-75
2024/02/06 01:42:53;;;;;;;138.65;96.40;;;10.60;99.90;;;;;;6245301;23;20004;-75
2024/02/06 01:45:19;;;;;;;141.43;96.05;;;10.60;99.90;;;;;;6245229;23;20401;-76
2024/02/06 01:47:45;;;;;;;141.45;99.32;;;10.60;99.90;;;;;;6244944;23;20011;-75
2024/02/06 01:50:12;;;;;;;145.20;99.57;;;10.60;99.90;;;;;;6244638;23;20075;-75
2024/02/06 01:52:38;;;;;;;147.68;100.82;;;10.60;99.90;;;;;;6245133;23;20461;-75
2024/02/06 01:55:05;;;;;;;146.52;100.55;;;10.60;99.90;;;;;;6245058;23;20024;-76
2024/02/06 01:57:35;;;;;;;144.68;99.70;;;10.60;99.90;;;;;;6242614;23;20437;-74
2024/02/06 02:00:03;;;;;;;144.02;97.40;;;10.60;99.90;;;;;;6241757;23;20016;-75
2024/02/06 02:02:29;;;;;;;145.70;100.22;;;10.60;99.90;;;;;;6241672;23;20071;-75
2024/02/06 02:04:54;;;;;;;145.07;102.00;;;10.60;99.90;;;;;;6243303;23;20078;-75
2024/02/06 02:07:20;;;;;;;147.65;98.90;;;10.60;99.90;;;;;;6244580;23;19997;-75
2024/02/06 02:09:46;;;;;;;145.90;99.47;;;10.60;99.90;;;;;;6245028;23;20275;-75
2024/02/06 02:12:12;;;;;;;149.70;101.32;;;10.60;99.90;;;;;;6244900;23;20006;-74
2024/02/06 02:14:38;;;;;;;140.20;95.38;;;10.60;99.90;;;;;;6244441;23;20427;-75
2024/02/06 02:17:04;;;;;;;150.23;100.38;;;10.50;99.90;;;;;;6244947;23;20076;-75
2024/02/06 02:19:29;;;;;;;141.50;97.07;;;10.50;99.90;;;;;;6244848;23;19996;-75
2024/02/06 02:21:55;;;;;;;137.93;97.07;;;10.50;99.90;;;;;;6217865;23;20009;-75
2024/02/06 02:24:21;;;;;;;138.23;98.43;;;10.60;99.90;;;;;;6244993;23;20023;-75
2024/02/06 02:26:47;;;;;;;134.48;95.97;;;10.50;99.90;;;;;;6244814;23;20004;-75
2024/02/06 02:29:14;;;;;;;140.93;96.60;;;10.50;99.90;;;;;;6243928;23;20091;-76
2024/02/06 02:31:43;;;;;;;144.93;99.18;;;10.50;99.90;;;;;;6244940;23;20008;-74
2024/02/06 02:34:09;;;;;;;145.77;98.63;;;10.60;99.90;;;;;;6244855;23;20001;-75
2024/02/06 02:36:37;;;;;;;142.38;97.45;;;10.50;99.90;;;;;;6244506;23;20387;-72
2024/02/06 02:39:03;;;;;;;142.35;98.72;;;10.50;99.90;;;;;;6244831;23;20011;-76
2024/02/06 02:41:29;;;;;;;149.50;101.45;;;10.50;99.90;;;;;;6244973;23;20007;-75
2024/02/06 02:43:56;;;;;;;150.85;101.22;;;10.50;99.90;;;;;;6244834;23;20423;-75
2024/02/06 02:46:21;;;;;;;145.80;101.85;;;10.50;99.90;;;;;;6245049;23;20004;-76
2024/02/06 02:48:47;;;;;;;145.73;99.57;;;10.50;99.90;;;;;;6244447;23;20012;-75
2024/02/06 02:51:13;;;;;;;145.63;99.07;;;10.50;99.90;;;;;;6245215;23;20004;-75
2024/02/06 02:53:39;;;;;;;148.23;101.57;;;10.50;99.90;;;;;;6244665;23;20007;-75
2024/02/06 02:56:05;;;;;;;147.05;99.93;;;10.50;99.90;;;;;;6245468;23;19996;-75
2024/02/06 02:58:31;;;;;;;147.85;100.20;;;10.50;99.90;;;;;;6246747;23;20500;-75
2024/02/06 03:00:56;;;;;;;145.77;99.55;;;10.50;99.90;;;;;;6219963;23;20000;-76
2024/02/06 03:03:22;;;;;;;143.75;101.15;;;10.50;99.90;;;;;;6246488;23;20083;-75
2024/02/06 03:05:48;;;;;;;152.02;104.03;;;10.50;99.90;;;;;;6246073;23;20453;-74
2024/02/06 03:08:14;;;;;;;155.63;105.53;;;10.50;99.90;;;;;;6246006;23;20126;-75
2024/02/06 03:10:39;;;;;;;149.52;104.60;;;10.50;99.90;;;;;;6246538;23;20111;-76
2024/02/06 03:13:05;;;;;;;156.75;105.72;;;10.50;99.90;;;;;;6246643;23;20082;-75
2024/02/06 03:15:31;;;;;;;159.98;105.80;;;10.50;99.90;;;;;;6246718;23;20007;-75
2024/02/06 03:17:57;;;;;;;149.80;104.00;;;10.50;99.90;;;;;;6246156;23;20393;-75
2024/02/06 03:20:23;;;;;;;152.85;105.22;;;10.50;99.90;;;;;;6246720;23;20071;-75
2024/02/06 03:22:49;;;;;;;158.57;108.28;;;10.50;99.90;;;;;;6246175;23;20036;-75
2024/02/06 03:25:15;;;;;;;155.70;107.88;;;10.50;99.90;;;;;;6246566;23;20008;-74
2024/02/06 03:27:43;;;;;;;152.23;101.85;;;10.50;99.90;;;;;;6246161;23;20007;-75
2024/02/06 03:30:10;;;;;;;149.52;103.65;;;10.50;99.90;;;;;;6246475;23;20026;-75
2024/02/06 03:32:35;;;;;;;145.98;98.35;;;10.50;99.90;;;;;;6246024;23;20000;-75
2024/02/06 03:35:01;;;;;;;146.63;101.93;;;10.50;99.90;;;;;;6219474;23;20300;-74
2024/02/06 03:37:27;;;;;;;141.63;96.63;;;10.50;99.90;;;;;;6246003;23;19997;-75
2024/02/06 03:39:52;;;;;;;146.73;98.80;;;10.50;99.90;;;;;;6246257;23;20394;-74
2024/02/06 03:42:18;;;;;;;146.15;97.93;;;10.50;99.90;;;;;;6246067;23;20079;-72
2024/02/06 03:44:44;;;;;;;136.98;94.25;;;10.50;99.90;;;;;;6246270;23;20031;-72
2024/02/06 03:47:10;;;;;;;145.40;94.78;;;10.50;99.90;;;;;;6246178;23;20077;-72
2024/02/06 03:49:36;;;;;;;133.88;94.35;;;10.50;99.90;;;;;;6245879;23;20019;-72
2024/02/06 03:52:01;;;;;;;138.85;94.72;;;10.50;99.90;;;;;;6246074;23;20083;-74
2024/02/06 03:54:27;;;;;;;138.93;94.00;;;10.50;99.90;;;;;;6246217;23;20007;-74
2024/02/06 03:56:53;;;;;;;140.27;96.28;;;10.50;99.90;;;;;;6246265;23;20028;-75
2024/02/06 03:59:19;;;;;;;131.75;90.80;;;10.50;99.90;;;;;;6245911;23;20004;-72
2024/02/06 04:01:44;;;;;;;134.52;91.93;;;10.50;99.90;;;;;;6246005;23;20004;-73
2024/02/06 04:04:10;;;;;;;137.25;95.47;;;10.50;99.90;;;;;;6218869;23;20011;-72
2024/02/06 04:06:36;;;;;;;130.93;90.40;;;10.50;99.90;;;;;;6245301;23;20004;-73
2024/02/06 04:09:03;;;;;;;137.35;92.57;;;10.50;99.90;;;;;;6245491;23;20012;-72
2024/02/06 04:11:29;;;;;;;131.98;89.45;;;10.40;99.90;;;;;;6246281;23;20446;-72
2024/02/06 04:13:55;;;;;;;127.05;89.78;;;10.50;99.90;;;;;;6245414;23;20008;-72
2024/02/06 04:16:21;;;;;;;139.82;93.10;;;10.50;99.90;;;;;;6245630;23;20008;-72
2024/02/06 04:18:47;;;;;;;127.18;90.28;;;10.40;99.90;;;;;;6245611;23;19996;-72
2024/02/06 04:21:12;;;;;;;126.88;87.88;;;10.40;99.90;;;;;;6245693;23;20005;-73
2024/02/06 04:23:38;;;;;;;121.75;87.13;;;10.50;99.90;;;;;;6245522;23;20032;-74
2024/02/06 04:26:05;;;;;;;125.93;89.43;;;10.50;99.90;;;;;;6245618;23;19996;-73
2024/02/06 04:28:32;;;;;;;123.00;89.05;;;10.50;99.90;;;;;;6245379;23;20012;-74
2024/02/06 04:30:58;;;;;;;129.57;90.55;;;10.50;99.90;;;;;;6245458;23;20115;-75
2024/02/06 04:33:23;;;;;;;127.68;88.93;;;10.40;99.90;;;;;;6245322;23;20447;-74
2024/02/06 04:35:49;;;;;;;127.55;89.60;;;10.50;99.90;;;;;;6245296;23;20010;-74
2024/02/06 04:38:15;;;;;;;131.75;89.07;;;10.40;99.90;;;;;;6245621;23;20079;-74
2024/02/06 04:40:41;;;;;;;127.85;85.95;;;10.40;99.90;;;;;;6245584;23;19996;-73
2024/02/06 04:43:06;;;;;;;131.77;87.43;;;10.40;99.90;;;;;;6245565;23;20000;-72
2024/02/06 04:45:33;;;;;;;120.60;85.25;;;10.40;99.90;;;;;;6245193;23;20055;-72
2024/02/06 04:47:59;;;;;;;115.72;81.78;;;10.50;99.90;;;;;;6245404;23;20094;-71
2024/02/06 04:50:25;;;;;;;119.25;80.65;;;10.50;99.90;;;;;;6245349;23;20000;-72
2024/02/06 04:52:50;;;;;;;114.00;80.50;;;10.50;99.90;;;;;;6245647;23;20594;-71
2024/02/06 04:55:16;;;;;;;111.97;79.22;;;10.50;99.90;;;;;;6218793;23;20339;-71
2024/02/06 04:57:42;;;;;;;112.82;78.55;;;10.50;99.90;;;;;;6245028;23;20010;-72
2024/02/06 05:00:12;;;;;;;112.30;77.68;;;10.50;99.90;;;;;;6244902;23;20007;-72
2024/02/06 05:02:41;;;;;;;109.75;77.05;;;10.50;99.90;;;;;;6245393;23;20035;-71
2024/02/06 05:05:07;;;;;;;104.47;73.43;;;10.50;99.90;;;;;;6245188;23;20004;-72
2024/02/06 05:07:33;;;;;;;107.40;76.18;;;10.50;99.90;;;;;;6245036;23;20426;-71
2024/02/06 05:09:59;;;;;;;112.45;73.00;;;10.50;99.90;;;;;;6245614;23;20000;-71
2024/02/06 05:12:25;;;;;;;102.20;71.22;;;10.50;99.90;;;;;;6245142;23;20315;-73
2024/02/06 05:14:51;;;;;;;99.10;70.88;;;10.50;99.90;;;;;;6245523;23;19996;-72
2024/02/06 05:17:17;;;;;;;96.13;68.50;;;10.50;99.90;;;;;;6245197;23;20004;-72
2024/02/06 05:19:43;;;;;;;96.55;68.57;;;10.50;99.90;;;;;;6245177;23;20070;-72
2024/02/06 05:22:09;;;;;;;98.18;67.72;;;10.40;99.90;;;;;;6245440;23;20000;-72
2024/02/06 05:24:35;;;;;;;98.75;69.95;;;10.40;99.90;;;;;;6245691;23;20419;-73
2024/02/06 05:27:03;;;;;;;99.00;71.80;;;10.40;99.90;;;;;;6245152;23;20477;-72
2024/02/06 05:29:30;;;;;;;97.82;69.18;;;10.50;99.90;;;;;;6244664;23;20150;-73
2024/02/06 05:31:56;;;;;;;98.25;70.68;;;10.40;99.90;;;;;;6243731;23;20023;-72
2024/02/06 05:34:22;;;;;;;98.07;69.63;;;10.40;99.90;;;;;;6244832;23;20115;-72
2024/02/06 05:36:48;;;;;;;113.78;76.75;;;10.40;99.90;;;;;;6245284;23;20362;-72
2024/02/06 05:39:13;;;;;;;112.32;76.93;;;10.40;99.90;;;;;;6245121;23;20038;-72
2024/02/06 05:41:39;;;;;;;109.95;77.32;;;10.40;99.90;;;;;;6217866;23;20058;-72
2024/02/06 05:44:05;;;;;;;111.72;75.38;;;10.40;99.90;;;;;;6218509;23;20083;-72
2024/02/06 05:46:31;;;;;;;105.35;76.28;;;10.40;99.90;;;;;;6245500;23;20057;-72
2024/02/06 05:49:00;;;;;;;107.75;73.82;;;10.40;99.90;;;;;;6218336;23;20019;-72
2024/02/06 05:51:26;;;;;;;110.82;77.35;;;10.40;99.90;;;;;;6245374;23;20327;-72
2024/02/06 05:53:52;;;;;;;118.72;79.40;;;10.40;99.90;;;;;;6244907;23;20016;-72
2024/02/06 05:56:17;;;;;;;110.25;76.35;;;10.40;99.90;;;;;;6244670;23;20001;-72
2024/02/06 05:58:43;;;;;;;116.75;80.53;;;10.40;99.90;;;;;;6244650;23;19996;-72
2024/02/06 06:01:09;;;;;;;128.25;83.70;;;10.40;99.90;;;;;;6244747;23;20004;-72
2024/02/06 06:03:35;;;;;;;124.47;83.85;;;10.40;99.90;;;;;;6244967;23;20004;-72
2024/02/06 06:06:01;;;;;;;120.28;82.47;;;10.30;99.90;;;;;;6244864;23;20004;-72
2024/02/06 06:08:27;;;;;;;116.55;78.47;;;10.30;99.90;;;;;;6245084;23;20019;-71
2024/02/06 06:10:53;;;;;;;115.38;79.03;;;10.30;99.90;;;;;;6245049;23;20003;-72
2024/02/06 06:13:19;;;;;;;114.95;78.20;;;10.30;99.90;;;;;;6245032;23;20007;-72
2024/02/06 06:15:46;;;;;;;111.03;77.05;;;10.30;99.90;;;;;;6244860;23;20067;-72
2024/02/06 06:18:12;;;;;;;113.30;77.35;;;10.20;99.90;;;;;;6245021;23;20423;-72
2024/02/06 06:20:38;;;;;;;116.43;79.00;;;10.30;99.90;;;;;;6244522;23;20007;-72
2024/02/06 06:23:03;;;;;;;113.70;78.43;;;10.30;99.90;;;;;;6245078;23;20078;-71
2024/02/06 06:25:30;;;;;;;109.50;77.55;;;10.30;99.90;;;;;;6245014;23;20000;-73
2024/02/06 06:27:56;;;;;;;111.05;78.53;;;10.30;99.90;;;;;;6218005;23;20350;-71
2024/02/06 06:30:23;;;;;;;109.63;79.50;;;10.30;99.90;;;;;;6244655;23;20016;-72
2024/02/06 06:32:49;;;;;;;99.97;71.28;;;10.30;99.90;;;;;;6246642;23;19997;-72
2024/02/06 06:35:15;;;;;;;92.25;65.28;;;10.30;99.90;;;;;;6246850;23;20422;-72
2024/02/06 06:37:41;;;;;;;99.57;65.72;;;10.30;99.90;;;;;;6246502;23;20002;-71
2024/02/06 06:40:08;;;;;;;93.03;64.93;;;10.30;99.90;;;;;;6246684;23;20004;-72
2024/02/06 06:42:34;;;;;;;90.22;61.53;;;10.20;99.90;;;;;;6246624;23;20007;-72
2024/02/06 06:45:00;;;;;;;81.75;60.38;;;10.30;99.90;;;;;;6246701;23;20322;-73
2024/02/06 06:47:27;;;;;;;80.32;58.75;;;10.30;99.90;;;;;;6246674;23;20004;-72
2024/02/06 06:49:53;;;;;;;77.05;55.78;;;10.30;99.90;;;;;;6246345;23;20012;-72
2024/02/06 06:52:19;;;;;;;77.78;55.20;;;10.30;99.90;;;;;;6246343;23;20004;-72
2024/02/06 06:54:44;;;;;;;76.10;56.90;;;10.30;99.90;;;;;;6246669;23;20138;-72
2024/02/06 06:57:10;;;;;;;74.50;53.72;;;10.30;99.90;;;;;;6246501;23;20007;-72
2024/02/06 06:59:36;;;;;;;71.93;51.45;;;10.30;99.90;;;;;;6246449;23;20004;-72
2024/02/06 07:02:01;;;;;;;68.47;50.03;;;10.30;99.90;;;;;;6246257;23;20074;-74
2024/02/06 07:04:28;;;;;;;70.10;46.10;;;10.30;99.90;;;;;;6246650;23;20000;-71
2024/02/06 07:06:55;;;;;;;63.83;46.95;;;10.30;99.90;;;;;;6246442;23;20004;-72
2024/02/06 07:09:27;;;;;;;62.53;45.73;;;10.30;99.90;;;;;;6218989;23;20338;-72
2024/02/06 07:11:53;;;;;;;63.63;46.83;;;10.30;99.90;;;;;;6246010;23;20308;-72
2024/02/06 07:14:19;;;;;;;65.10;45.15;;;10.40;99.90;;;;;;6246533;23;20019;-71
2024/02/06 07:16:45;;;;;;;60.88;45.33;;;10.40;99.90;;;;;;6245995;23;20506;-71
2024/02/06 07:19:11;;;;;;;64.70;46.50;;;10.40;99.90;;;;;;6245563;23;19996;-72
2024/02/06 07:21:37;;;;;;;59.33;46.05;;;10.30;99.90;;;;;;6245401;23;20004;-72
2024/02/06 07:24:04;;;;;;;60.53;45.03;;;10.40;99.90;;;;;;6246383;23;20001;-72
2024/02/06 07:26:31;;;;;;;61.45;45.10;;;10.40;99.90;;;;;;6246395;23;20139;-72
2024/02/06 07:28:57;;;;;;;58.03;45.35;;;10.30;99.90;;;;;;6246056;23;20079;-72
2024/02/06 07:31:23;;;;;;;64.95;47.05;;;10.40;99.90;;;;;;6245620;23;20023;-72
2024/02/06 07:33:49;;;;;;;62.67;44.78;;;10.40;99.90;;;;;;6246555;23;20047;-72
2024/02/06 07:36:15;;;;;;;62.35;45.72;;;10.40;99.90;;;;;;6245911;23;19996;-72
2024/02/06 07:38:43;;;;;;;65.00;44.38;;;10.40;99.90;;;;;;6244122;23;20008;-72
2024/02/06 07:41:10;;;;;;;61.67;44.75;;;10.40;99.90;;;;;;6217635;23;20080;-72
2024/02/06 07:43:38;;;;;;;66.50;45.70;;;10.40;99.90;;;;;;6148138;22;20361;-73
2024/02/06 07:46:05;;;;;;;64.80;44.60;;;10.40;99.90;;;;;;6252592;22;20038;-72
2024/02/06 07:48:32;;;;;;;61.65;43.10;;;10.40;99.90;;;;;;6245439;23;20066;-71
2024/02/06 07:50:58;;;;;;;60.78;44.05;;;10.40;99.90;;;;;;6243976;23;20004;-73
2024/02/06 07:53:24;;;;;;;65.57;44.00;;;10.40;99.90;;;;;;6245281;23;20066;-73
2024/02/06 07:55:52;;;;;;;65.55;44.65;;;10.40;99.90;;;;;;6245473;23;20000;-76
2024/02/06 07:58:18;;;;;;;63.10;44.30;;;10.50;99.90;;;;;;6245317;23;20307;-72
2024/02/06 08:00:45;;;;;;;67.70;43.28;;;10.50;99.90;;;;;;6245565;23;19997;-72
2024/02/06 08:03:11;;;;;;;62.90;44.25;;;10.50;99.90;;;;;;6242481;23;20004;-73
2024/02/06 08:05:37;;;;;;;63.83;44.70;;;10.50;99.90;;;;;;6241223;23;20000;-72
2024/02/06 08:08:04;;;;;;;67.53;44.72;;;10.50;99.90;;;;;;6242099;23;20493;-72
2024/02/06 08:10:30;;;;;;;63.17;45.10;;;10.50;99.90;;;;;;6244840;23;20055;-72
2024/02/06 08:12:56;;;;;;;60.15;44.78;;;10.50;99.90;;;;;;6244953;23;20083;-72
2024/02/06 08:15:22;;;;;;;61.47;44.05;;;10.50;99.90;;;;;;6244935;23;20024;-72
2024/02/06 08:17:50;;;;;;;59.08;44.08;;;10.60;99.90;;;;;;6244623;23;20000;-72
2024/02/06 08:22:51;;;;;;;66.57;44.15;;;10.60;99.90;;;;;;6185221;22;20395;-73
2024/02/06 08:25:21;;;;;;;56.55;41.92;;;10.60;99.90;;;;;;6273163;22;20049;-72
2024/02/06 08:27:48;;;;;;;60.25;43.65;;;10.60;99.90;;;;;;6274543;22;20484;-73
2024/02/06 08:30:14;;;;;;;60.25;44.47;;;10.60;99.90;;;;;;6274487;22;20023;-72
2024/02/06 08:32:40;;;;;;;62.90;45.65;;;10.60;99.90;;;;;;6275067;22;20543;-72
2024/02/06 08:35:06;;;;;;;62.97;43.97;;;10.60;99.90;;;;;;6276335;22;20031;-72
2024/02/06 08:37:32;;;;;;;59.88;42.95;;;10.60;99.90;;;;;;6274821;22;20426;-72
2024/02/06 08:39:59;;;;;;;57.97;42.78;;;10.60;99.90;;;;;;6273696;22;20007;-72
2024/02/06 08:42:29;;;;;;;55.45;43.58;;;10.60;99.90;;;;;;6274996;22;20003;-72
2024/02/06 08:44:57;;;;;;;61.42;43.63;;;10.70;99.90;;;;;;6274676;22;20006;-72
2024/02/06 08:47:24;;;;;;;54.80;41.72;;;10.60;99.90;;;;;;6275515;22;20008;-72
2024/02/06 08:49:50;;;;;;;63.88;41.70;;;10.60;99.90;;;;;;6276524;22;20465;-73
2024/02/06 08:52:16;;;;;;;53.28;41.30;;;10.60;99.90;;;;;;6276415;22;20000;-72
2024/02/06 08:54:42;;;;;;;57.08;41.13;;;10.70;99.90;;;;;;6249480;22;20057;-72
2024/02/06 08:57:08;;;;;;;56.30;40.65;;;10.70;99.90;;;;;;6276590;22;20038;-72
2024/02/06 08:59:35;;;;;;;50.78;39.35;;;10.70;99.90;;;;;;6248952;22;20083;-72
2024/02/06 09:02:02;;;;;;;59.70;41.90;;;10.70;99.90;;;;;;6276585;22;20650;-72
2024/02/06 09:04:42;;;;;;;59.00;41.35;;;10.70;99.90;;;;;;6276667;22;20000;-72
2024/02/06 09:11:36;;;;;;;53.50;41.63;;;10.70;99.90;;;;;;6181344;23;20057;-72
2024/02/06 09:17:54;;;;;;;59.28;40.60;;;10.70;99.90;;;;;;6152473;23;20100;-72
2024/02/06 09:23:49;;;;;;;53.92;39.45;;;10.80;99.90;;;;;;6111061;23;20029;-73
2024/02/06 09:26:36;;;;;;;51.33;38.38;;;10.70;99.90;;;;;;6035539;23;20042;-73
2024/02/06 09:32:58;;;;;;;58.03;38.13;;;10.80;99.90;;;;;;5982217;24;20023;-73
2024/02/06 09:35:24;;;;;;;55.88;38.42;;;10.80;99.90;;;;;;5987157;23;20353;-72
2024/02/06 09:37:50;;;;;;;54.25;39.33;;;10.80;99.90;;;;;;6105740;23;20065;-73
2024/02/06 09:40:16;;;;;;;46.72;33.35;;;10.80;99.90;;;;;;6122469;23;20057;-73
2024/02/06 09:42:41;;;;;;;48.08;32.80;;;10.80;99.90;;;;;;6122821;23;20030;-73
2024/02/06 09:45:09;;;;;;;41.55;29.60;;;10.90;99.90;;;;;;6122582;23;20001;-73
2024/02/06 09:47:35;;;;;;;44.00;30.65;;;10.90;99.90;;;;;;6121987;23;20372;-72
2024/02/06 09:50:03;;;;;;;53.70;33.78;;;10.90;99.90;;;;;;6122284;23;20009;-72
2024/02/06 09:52:30;;;;;;;55.95;40.25;;;10.90;99.90;;;;;;6122546;23;20336;-72
2024/02/06 09:55:03;;;;;;;60.13;42.83;;;10.90;99.90;;;;;;6173366;23;20017;-73
2024/02/06 09:57:30;;;;;;;58.83;41.85;;;11.00;99.90;;;;;;6202132;23;20411;-73
2024/02/06 09:59:57;;;;;;;62.97;43.03;;;10.90;99.90;;;;;;6214965;23;20422;-73
2024/02/06 10:02:24;;;;;;;65.75;43.10;;;11.00;99.90;;;;;;6215448;23;20054;-72
2024/02/06 10:04:53;;;;;;;66.25;44.17;;;11.00;99.90;;;;;;6216210;23;20359;-72
2024/02/06 10:07:19;;;;;;;72.35;47.00;;;11.00;99.90;;;;;;6217425;23;20067;-73
2024/02/06 10:09:46;;;;;;;70.75;44.65;;;11.00;99.90;;;;;;6217147;23;20013;-73
2024/02/06 10:12:14;;;;;;;68.43;47.40;;;11.00;99.90;;;;;;6217150;23;20008;-75
2024/02/06 10:14:40;;;;;;;75.88;50.20;;;11.00;99.90;;;;;;6216991;23;20394;-73
2024/02/06 10:17:09;;;;;;;72.85;48.88;;;11.10;99.90;;;;;;6217368;23;20000;-73
2024/02/06 10:19:35;;;;;;;81.55;54.33;;;11.10;99.90;;;;;;6190594;23;20358;-73
2024/02/06 10:22:01;;;;;;;93.32;60.17;;;11.10;99.90;;;;;;6216574;23;20027;-72
2024/02/06 10:24:29;;;;;;;101.13;65.10;;;11.10;99.90;;;;;;6229663;23;20094;-72
2024/02/06 10:27:02;;;;;;;107.40;69.18;;;11.20;99.90;;;;;;6220385;23;20019;-73
2024/02/06 10:29:28;;;;;;;100.63;67.68;;;11.10;99.90;;;;;;6246718;23;20433;-75
2024/02/06 10:32:00;;;;;;;105.18;68.45;;;11.10;99.90;;;;;;6219930;23;20004;-74
2024/02/06 10:34:27;;;;;;;98.32;66.55;;;11.10;99.90;;;;;;6247811;23;20016;-73
2024/02/06 10:36:59;;;;;;;102.03;67.10;;;11.10;99.90;;;;;;6247979;23;20389;-73
2024/02/06 10:39:29;;;;;;;97.68;68.28;;;11.20;99.90;;;;;;6221444;23;20071;-72
2024/02/06 10:42:02;;;;;;;99.35;64.25;;;11.20;99.90;;;;;;6247933;23;20046;-73
2024/02/06 10:44:28;;;;;;;90.88;62.63;;;11.20;99.90;;;;;;6247730;23;20375;-72
2024/02/06 10:58:04;;;;;;;107.53;71.93;;;11.20;99.90;;;;;;6184772;23;20052;-73
2024/02/06 11:07:33;;;;;;;114.07;75.20;;;11.30;99.90;;;;;;5925978;24;20020;-72
2024/02/06 11:10:41;;;;;;;120.10;77.82;;;11.30;99.90;;;;;;5926027;24;20013;-72
2024/02/06 11:13:11;;;;;;;123.72;80.53;;;11.30;99.90;;;;;;5953709;24;20028;-72
2024/02/06 11:15:40;;;;;;;121.30;81.13;;;11.30;99.90;;;;;;6007128;23;20345;-72
2024/02/06 11:18:13;;;;;;;119.72;76.68;;;11.30;99.90;;;;;;6140490;22;20004;-72
2024/02/06 11:20:43;;;;;;;116.88;76.55;;;11.30;99.90;;;;;;6245475;23;20308;-72
2024/02/06 11:23:09;;;;;;;114.63;76.55;;;11.30;99.90;;;;;;6247567;23;20377;-72
2024/02/06 11:25:38;;;;;;;122.60;77.28;;;11.30;99.90;;;;;;6274028;22;20365;-72
2024/02/06 11:28:05;;;;;;;121.20;77.22;;;11.40;99.90;;;;;;6277524;22;20042;-72
2024/02/06 11:30:32;;;;;;;118.00;76.05;;;11.30;99.90;;;;;;6277161;22;20000;-75
2024/02/06 11:33:07;;;;;;;115.97;74.70;;;11.30;99.90;;;;;;6277462;22;20076;-74
2024/02/06 11:35:34;;;;;;;113.65;73.95;;;11.40;99.90;;;;;;6277520;22;20006;-75
2024/02/06 11:38:00;;;;;;;118.45;77.55;;;11.40;99.90;;;;;;6277124;22;20007;-74
2024/02/06 11:40:28;;;;;;;118.13;77.50;;;11.40;99.90;;;;;;6277037;22;20460;-75
2024/02/06 11:43:07;;;;;;;120.40;75.88;;;11.40;99.90;;;;;;6276899;22;20007;-74
2024/02/06 11:45:34;;;;;;;121.45;76.18;;;11.40;99.90;;;;;;6277036;22;20057;-74
2024/02/06 11:48:02;;;;;;;120.80;76.45;;;11.50;99.90;;;;;;6277116;22;20004;-74
2024/02/06 11:50:44;;;;;;;115.28;75.35;;;11.50;99.90;;;;;;6277258;22;20039;-74
2024/02/06 11:53:14;;;;;;;115.15;73.10;;;11.50;99.90;;;;;;6277143;22;20426;-74
2024/02/06 11:55:41;;;;;;;115.78;75.70;;;11.50;99.90;;;;;;6277032;22;20026;-75
2024/02/06 11:58:08;;;;;;;117.30;72.97;;;11.50;99.90;;;;;;6276928;22;20330;-74
2024/02/06 12:00:34;;;;;;;115.13;75.32;;;11.50;99.90;;;;;;6274641;22;20006;-74
2024/02/06 12:03:01;;;;;;;116.28;78.45;;;11.50;99.90;;;;;;6277162;22;20027;-74
2024/02/06 12:05:27;;;;;;;110.55;73.95;;;11.50;99.90;;;;;;6276043;22;20000;-74
2024/02/06 12:07:59;;;;;;;119.68;77.80;;;11.60;99.90;;;;;;6275866;22;20018;-74
2024/02/06 12:10:31;;;;;;;120.55;77.25;;;11.60;99.90;;;;;;6277290;22;20000;-74
2024/02/06 12:13:09;;;;;;;115.25;76.75;;;11.50;99.90;;;;;;6276913;22;20011;-74
2024/02/06 12:15:36;;;;;;;122.15;80.65;;;11.60;99.90;;;;;;6276589;22;20031;-75
2024/02/06 12:18:06;;;;;;;117.38;80.05;;;11.60;99.90;;;;;;6250880;22;20023;-74
2024/02/06 12:20:33;;;;;;;122.47;77.22;;;11.60;99.90;;;;;;6277822;22;20316;-74
2024/02/06 12:23:05;;;;;;;115.03;80.15;;;11.60;99.90;;;;;;6277597;22;20010;-75
2024/02/06 12:25:41;;;;;;;116.45;77.57;;;11.60;99.90;;;;;;6277246;22;20011;-75
2024/02/06 12:29:02;;;;;;;119.90;79.82;;;11.60;99.90;;;;;;6275283;22;20015;-75
2024/02/06 12:32:26;;;;;;;125.88;81.15;;;11.50;99.90;;;;;;6212896;23;20422;-75
2024/02/06 12:49:25;;;;;;;113.30;76.90;;;11.50;99.90;;;;;;6036611;23;20110;-75
2024/02/06 12:52:05;;;;;;;120.10;81.70;;;11.50;99.90;;;;;;6037335;23;20008;-74
2024/02/06 12:54:31;;;;;;;121.82;82.30;;;11.50;99.90;;;;;;6041025;23;20010;-74
2024/02/06 12:56:57;;;;;;;121.40;78.55;;;11.50;99.90;;;;;;6223629;22;20000;-74
2024/02/06 12:59:25;;;;;;;123.40;79.20;;;11.50;99.90;;;;;;6276743;22;20380;-75
2024/02/06 13:01:51;;;;;;;117.65;83.05;;;11.50;99.90;;;;;;6276277;22;20389;-74
2024/02/06 13:04:27;;;;;;;122.05;82.15;;;11.50;99.90;;;;;;6275926;22;20081;-74
2024/02/06 13:06:53;;;;;;;129.15;84.25;;;11.50;99.90;;;;;;6276394;22;20000;-74
2024/02/06 13:09:26;;;;;;;124.30;86.07;;;11.50;99.90;;;;;;6276286;22;20319;-74